KBLV/BLV METAR and TAF weather

Enter ICAO airport designator
Station Type Date Time Source
KBLV METAR 2018/10/16 20:56 UTC NOAA

KBLV 162056Z AUTO 24006KT 10SM CLR 14/01 A3019 RMK AO2 SLP228 T01390009 56021 $


Station Type Date Time Source
KBLV Decoded METAR 2018/10/16 20:56 UTC NOAA

Belleville, Scott AFB/MidAmerica Airport, IL, United States (KBLV) 38-33N 089-51W
Oct 16, 2018 - 04:56 PM EDT / 2018.10.16 2056 UTC
Wind: from the WSW (240 degrees) at 7 MPH (6 KT):0
Visibility: 10 mile(s):0
Sky conditions: clear
Temperature: 57.0 F (13.9 C)
Dew Point: 33.6 F (0.9 C)
Relative Humidity: 41%
Pressure (altimeter): 30.19 in. Hg (1022 hPa)
Pressure tendency: 0.06 inches (2.1 hPa) lower than three hours ago
ob: KBLV 162056Z AUTO 24006KT 10SM CLR 14/01 A3019 RMK AO2 SLP228 T01390009 56021
cycle: 21

Station Type Date Time Source
KBLV TAF 2018/10/16 16:12 UTC NOAA

TAF TAF KBLV 161604Z 1616/1722 22006KT 9999 BKN230 QNH3018INS
BECMG 1714/1715 35012G18KT 9999 SKC QNH3035INS TX11/1620Z TN03/1711Z


Example: see airport list